Time;durP1;ratioP1;P1;durP2;ratioP2;P2;SDS_P1;SDS_P2;PMS_P1;PMS_P2;Temp;Humidity;BMP_temperature;BMP_pressure;BME280_temperature;BME280_humidity;BME280_pressure;Samples;Min_cycle;Max_cycle;Signal;HPM_P1;HPM_P2
2022/03/08 00:01:21;;;;;;;15.60;10.60;;;0.10;99.90;;;;;;476826;249;28059;-72
2022/03/08 00:03:23;;;;;;;13.02;10.60;;;0.10;99.90;;;;;;476754;247;28063;-71
2022/03/08 00:05:24;;;;;;;13.57;10.02;;;0.10;99.90;;;;;;476824;249;27542;-72
2022/03/08 00:07:25;;;;;;;11.93;10.25;;;0.00;99.90;;;;;;476813;249;27555;-74
2022/03/08 00:09:26;;;;;;;13.10;10.63;;;0.10;99.90;;;;;;476839;249;27619;-71
2022/03/08 00:11:28;;;;;;;14.15;10.90;;;0.00;99.90;;;;;;476844;249;27573;-71
2022/03/08 00:13:29;;;;;;;13.38;10.68;;;0.00;99.90;;;;;;476836;249;27520;-73
2022/03/08 00:15:30;;;;;;;15.63;9.65;;;0.00;99.90;;;;;;476811;249;27986;-72
2022/03/08 00:17:31;;;;;;;14.05;10.65;;;0.00;99.90;;;;;;476805;249;28099;-75
2022/03/08 00:19:33;;;;;;;14.55;10.20;;;0.00;99.90;;;;;;476833;249;27973;-72
2022/03/08 00:21:34;;;;;;;12.95;10.00;;;0.00;99.90;;;;;;476853;249;27623;-72
2022/03/08 00:23:35;;;;;;;14.50;10.50;;;-0.10;99.90;;;;;;476863;249;27583;-72
2022/03/08 00:25:36;;;;;;;14.23;11.02;;;-0.10;99.90;;;;;;476835;249;27609;-72
2022/03/08 00:27:38;;;;;;;14.52;10.55;;;-0.10;99.90;;;;;;476814;249;27657;-72
2022/03/08 00:29:39;;;;;;;14.38;10.95;;;-0.20;99.90;;;;;;476824;249;27971;-72
2022/03/08 00:31:40;;;;;;;15.55;11.00;;;-0.10;99.90;;;;;;476813;249;28036;-72
2022/03/08 00:33:41;;;;;;;17.33;10.85;;;-0.10;99.90;;;;;;476811;249;27547;-72
2022/03/08 00:35:43;;;;;;;14.15;10.68;;;-0.20;99.90;;;;;;476856;249;27596;-72
2022/03/08 00:37:44;;;;;;;14.23;11.00;;;-0.20;99.90;;;;;;476814;249;27682;-73
2022/03/08 00:39:45;;;;;;;16.80;11.18;;;-0.10;99.90;;;;;;476809;249;27519;-72
2022/03/08 00:41:47;;;;;;;16.83;12.43;;;-0.10;99.90;;;;;;476813;249;27556;-72
2022/03/08 00:43:48;;;;;;;16.37;11.70;;;-0.10;99.90;;;;;;476853;249;28165;-74
2022/03/08 00:45:49;;;;;;;16.27;11.68;;;-0.20;99.90;;;;;;476842;249;27523;-71
2022/03/08 00:47:50;;;;;;;16.58;11.23;;;-0.20;99.90;;;;;;476843;249;27607;-72
2022/03/08 00:49:52;;;;;;;17.90;12.23;;;-0.20;99.90;;;;;;476809;249;27512;-72
2022/03/08 00:51:53;;;;;;;15.93;11.60;;;-0.20;99.90;;;;;;476839;249;27653;-72
2022/03/08 00:53:54;;;;;;;15.70;12.13;;;-0.20;99.90;;;;;;476860;249;27539;-73
2022/03/08 00:55:55;;;;;;;19.12;12.90;;;-0.20;99.90;;;;;;476859;249;27961;-72
2022/03/08 00:57:57;;;;;;;19.90;12.10;;;-0.20;99.90;;;;;;476842;249;28118;-73
2022/03/08 00:59:58;;;;;;;15.75;12.25;;;-0.20;99.90;;;;;;476831;249;27610;-72
2022/03/08 01:01:59;;;;;;;20.02;13.43;;;-0.20;99.90;;;;;;476845;249;27551;-72
2022/03/08 01:04:00;;;;;;;19.98;12.65;;;-0.20;99.90;;;;;;476813;249;27620;-72
2022/03/08 01:06:02;;;;;;;16.23;12.18;;;-0.30;99.90;;;;;;476789;249;27527;-72
2022/03/08 01:08:03;;;;;;;18.20;12.60;;;-0.30;99.90;;;;;;476807;249;28062;-73
2022/03/08 01:10:04;;;;;;;14.60;11.55;;;-0.30;99.90;;;;;;476817;249;28123;-71
2022/03/08 01:12:05;;;;;;;16.15;12.18;;;-0.30;99.90;;;;;;476822;249;27608;-72
2022/03/08 01:14:07;;;;;;;18.58;12.55;;;-0.30;99.90;;;;;;476749;249;27553;-73
2022/03/08 01:16:08;;;;;;;17.45;12.70;;;-0.40;99.90;;;;;;476805;249;27555;-72
2022/03/08 01:18:09;;;;;;;18.25;11.55;;;-0.40;99.90;;;;;;476770;249;27580;-72
2022/03/08 01:20:10;;;;;;;17.40;11.75;;;-0.40;99.90;;;;;;476802;249;27574;-75
2022/03/08 01:22:12;;;;;;;17.70;11.95;;;-0.40;99.90;;;;;;476811;249;28009;-72
2022/03/08 01:24:13;;;;;;;15.38;10.43;;;-0.40;99.90;;;;;;476814;249;27548;-72
2022/03/08 01:26:14;;;;;;;13.30;11.02;;;-0.40;99.90;;;;;;476810;249;27517;-72
2022/03/08 01:28:15;;;;;;;12.40;10.80;;;-0.50;99.90;;;;;;476824;249;27634;-72
2022/03/08 01:30:17;;;;;;;18.83;11.85;;;-0.50;99.90;;;;;;476833;249;27679;-73
2022/03/08 01:32:18;;;;;;;14.52;11.12;;;-0.50;99.90;;;;;;476810;249;27571;-72
2022/03/08 01:34:19;;;;;;;14.80;11.45;;;-0.50;99.90;;;;;;476783;249;28026;-72
2022/03/08 01:36:21;;;;;;;14.55;10.82;;;-0.50;99.90;;;;;;476836;249;29045;-72
2022/03/08 01:38:22;;;;;;;14.60;10.90;;;-0.50;99.90;;;;;;476819;249;27604;-72
2022/03/08 01:40:23;;;;;;;15.35;11.68;;;-0.50;99.90;;;;;;476805;249;27572;-72
2022/03/08 01:42:24;;;;;;;16.75;11.10;;;-0.50;99.90;;;;;;476830;249;27657;-72
2022/03/08 01:44:26;;;;;;;15.20;11.23;;;-0.50;99.90;;;;;;476797;249;27559;-72
2022/03/08 01:46:27;;;;;;;15.15;10.40;;;-0.60;99.90;;;;;;476818;249;28072;-72
2022/03/08 01:48:28;;;;;;;15.00;11.60;;;-0.60;99.90;;;;;;476832;249;28044;-72
2022/03/08 01:50:29;;;;;;;14.60;11.70;;;-0.60;99.90;;;;;;476823;249;27558;-72
2022/03/08 01:52:31;;;;;;;12.45;10.88;;;-0.60;99.90;;;;;;476829;249;27512;-71
2022/03/08 01:54:32;;;;;;;14.27;11.52;;;-0.60;99.90;;;;;;476779;249;27571;-72
2022/03/08 01:56:33;;;;;;;16.70;11.63;;;-0.60;99.90;;;;;;476778;249;27573;-74
2022/03/08 01:58:34;;;;;;;19.62;11.65;;;-0.60;99.90;;;;;;476828;249;27995;-72
2022/03/08 02:00:36;;;;;;;16.75;12.20;;;-0.50;99.90;;;;;;476830;249;28037;-72
2022/03/08 02:02:37;;;;;;;20.62;13.18;;;-0.60;99.90;;;;;;476831;249;27506;-72
2022/03/08 02:04:38;;;;;;;18.67;12.07;;;-0.60;99.90;;;;;;476790;249;27575;-72
2022/03/08 02:06:39;;;;;;;16.20;11.85;;;-0.60;99.90;;;;;;476859;249;28046;-74
2022/03/08 02:08:41;;;;;;;17.90;11.60;;;-0.60;99.90;;;;;;476842;249;27626;-72
2022/03/08 02:10:42;;;;;;;14.75;11.52;;;-0.60;99.90;;;;;;476837;249;27645;-71
2022/03/08 02:12:43;;;;;;;17.23;11.00;;;-0.60;99.90;;;;;;476804;249;27951;-71
2022/03/08 02:14:44;;;;;;;14.48;11.02;;;-0.60;99.90;;;;;;476819;249;27627;-73
2022/03/08 02:16:46;;;;;;;17.48;11.15;;;-0.60;99.90;;;;;;476843;249;27662;-73
2022/03/08 02:18:47;;;;;;;20.15;10.75;;;-0.60;99.90;;;;;;476816;249;27499;-72
2022/03/08 02:20:48;;;;;;;14.07;10.93;;;-0.60;99.90;;;;;;476811;249;27597;-72
2022/03/08 02:22:49;;;;;;;16.77;10.88;;;-0.60;99.90;;;;;;476804;248;27657;-72
2022/03/08 02:24:51;;;;;;;15.95;11.60;;;-0.50;99.90;;;;;;476814;249;28016;-72
2022/03/08 02:26:52;;;;;;;15.15;10.90;;;-0.50;99.90;;;;;;476838;249;28028;-72
2022/03/08 02:28:53;;;;;;;13.43;10.27;;;-0.50;99.90;;;;;;476849;249;27513;-72
2022/03/08 02:30:55;;;;;;;13.50;10.45;;;-0.60;99.90;;;;;;476831;249;27535;-73
2022/03/08 02:32:56;;;;;;;13.60;10.20;;;-0.60;99.90;;;;;;476805;249;27583;-72
2022/03/08 02:34:57;;;;;;;12.60;9.95;;;-0.60;99.90;;;;;;476839;249;27525;-72
2022/03/08 02:36:58;;;;;;;10.20;9.07;;;-0.60;99.90;;;;;;476824;249;28046;-73
2022/03/08 02:39:00;;;;;;;12.50;9.30;;;-0.70;99.90;;;;;;476831;249;27956;-72
2022/03/08 02:41:01;;;;;;;15.25;9.80;;;-0.70;99.90;;;;;;476834;249;29235;-72
2022/03/08 02:43:02;;;;;;;13.45;9.93;;;-0.60;99.90;;;;;;476842;249;27556;-71
2022/03/08 02:45:03;;;;;;;11.68;8.75;;;-0.70;99.90;;;;;;476860;249;27588;-72
2022/03/08 02:47:05;;;;;;;12.30;9.07;;;-0.70;99.90;;;;;;476852;248;27531;-72
2022/03/08 02:49:06;;;;;;;13.27;9.02;;;-0.60;99.90;;;;;;476842;249;27520;-72
2022/03/08 02:51:07;;;;;;;14.90;9.10;;;-0.60;99.90;;;;;;476841;249;27666;-72
2022/03/08 02:53:08;;;;;;;13.25;9.73;;;-0.70;99.90;;;;;;476857;247;28028;-74
2022/03/08 02:55:11;;;;;;;13.00;8.93;;;-0.60;99.90;;;;;;476824;249;27988;-72
2022/03/08 02:57:11;;;;;;;11.77;9.18;;;-0.60;99.90;;;;;;476775;249;27551;-72
2022/03/08 02:59:12;;;;;;;12.73;9.73;;;-0.60;99.90;;;;;;476824;249;27516;-72
2022/03/08 03:01:13;;;;;;;14.75;10.23;;;-0.60;99.90;;;;;;476855;249;27550;-72
2022/03/08 03:03:15;;;;;;;11.85;10.07;;;-0.50;99.90;;;;;;476810;249;27919;-73
2022/03/08 03:05:16;;;;;;;13.80;10.05;;;-0.50;99.90;;;;;;476819;249;27527;-73
2022/03/08 03:07:17;;;;;;;13.23;10.77;;;-0.50;99.90;;;;;;476831;249;28075;-72
2022/03/08 03:09:18;;;;;;;14.77;9.80;;;-0.50;99.90;;;;;;476797;249;29228;-72
2022/03/08 03:11:20;;;;;;;13.73;9.52;;;-0.50;99.90;;;;;;476794;249;27563;-72
2022/03/08 03:13:21;;;;;;;12.23;9.02;;;-0.50;99.90;;;;;;476843;249;27666;-74
2022/03/08 03:15:22;;;;;;;13.93;9.52;;;-0.60;99.90;;;;;;476810;249;27528;-72
2022/03/08 03:17:24;;;;;;;12.25;9.63;;;-0.60;99.90;;;;;;476791;249;27659;-72
2022/03/08 03:19:25;;;;;;;10.32;9.20;;;-0.50;99.90;;;;;;476800;249;27615;-73
2022/03/08 03:21:26;;;;;;;17.90;10.75;;;-0.50;99.90;;;;;;476815;249;27544;-72
2022/03/08 03:23:27;;;;;;;14.75;9.60;;;-0.50;99.90;;;;;;476839;249;28125;-74
2022/03/08 03:25:28;;;;;;;11.20;9.07;;;-0.50;99.90;;;;;;476832;249;28066;-72
2022/03/08 03:27:30;;;;;;;12.23;9.60;;;-0.50;99.90;;;;;;476840;249;27547;-73
2022/03/08 03:29:31;;;;;;;14.80;8.88;;;-0.50;99.90;;;;;;476804;249;27514;-72
2022/03/08 03:31:32;;;;;;;11.63;9.38;;;-0.50;99.90;;;;;;476863;249;27531;-72
2022/03/08 03:33:34;;;;;;;11.65;8.70;;;-0.50;99.90;;;;;;476868;248;27577;-73
2022/03/08 03:35:35;;;;;;;12.60;9.25;;;-0.50;99.90;;;;;;476826;249;27531;-72
2022/03/08 03:37:36;;;;;;;11.23;8.57;;;-0.50;99.90;;;;;;476806;249;28007;-72
2022/03/08 03:39:37;;;;;;;11.57;9.00;;;-0.50;99.90;;;;;;476826;249;28341;-72
2022/03/08 03:41:39;;;;;;;14.65;10.18;;;-0.50;99.90;;;;;;476843;249;27627;-72
2022/03/08 03:43:40;;;;;;;9.00;7.97;;;-0.50;99.90;;;;;;476823;249;27559;-73
2022/03/08 03:45:41;;;;;;;11.52;9.40;;;-0.60;99.90;;;;;;476832;249;27588;-71
2022/03/08 03:47:42;;;;;;;11.38;8.50;;;-0.60;99.90;;;;;;476815;249;27572;-72
2022/03/08 03:49:44;;;;;;;12.23;8.63;;;-0.60;99.90;;;;;;476810;249;27973;-74
2022/03/08 03:51:46;;;;;;;11.65;9.15;;;-0.50;99.90;;;;;;476819;249;27509;-72
2022/03/08 03:53:46;;;;;;;9.52;8.02;;;-0.60;99.90;;;;;;476761;249;28089;-73
2022/03/08 03:55:47;;;;;;;12.85;8.35;;;-0.60;99.90;;;;;;476821;249;27518;-72
2022/03/08 03:57:49;;;;;;;10.13;8.43;;;-0.60;99.90;;;;;;476827;249;27560;-72
2022/03/08 03:59:50;;;;;;;9.75;7.87;;;-0.60;99.90;;;;;;476818;249;27559;-73
2022/03/08 04:01:51;;;;;;;11.00;8.18;;;-0.70;99.90;;;;;;476790;249;27519;-72
2022/03/08 04:03:52;;;;;;;11.18;7.78;;;-0.70;99.90;;;;;;476801;249;27587;-72
2022/03/08 04:05:54;;;;;;;11.20;8.70;;;-0.70;99.90;;;;;;476799;249;27554;-75
2022/03/08 04:07:55;;;;;;;7.97;7.00;;;-0.70;99.90;;;;;;476802;249;27959;-71
2022/03/08 04:09:56;;;;;;;9.40;7.90;;;-0.80;99.90;;;;;;476798;249;28049;-73
2022/03/08 04:11:57;;;;;;;11.93;8.45;;;-0.70;99.90;;;;;;476800;249;27970;-72
2022/03/08 04:13:59;;;;;;;12.63;8.35;;;-0.70;99.90;;;;;;476814;249;27589;-71
2022/03/08 04:16:00;;;;;;;12.35;8.90;;;-0.60;99.90;;;;;;476836;249;27634;-72
2022/03/08 04:18:02;;;;;;;9.38;8.00;;;-0.60;99.90;;;;;;476815;249;27495;-72
2022/03/08 04:20:02;;;;;;;8.40;6.87;;;-0.60;99.90;;;;;;476825;249;27658;-73
2022/03/08 04:22:04;;;;;;;9.55;7.97;;;-0.70;99.90;;;;;;476814;249;27643;-72
2022/03/08 04:24:05;;;;;;;10.50;7.95;;;-0.60;99.90;;;;;;476792;249;27581;-72
2022/03/08 04:26:06;;;;;;;9.20;7.25;;;-0.60;99.90;;;;;;476806;249;28019;-74
2022/03/08 04:28:08;;;;;;;8.40;7.15;;;-0.60;99.90;;;;;;476818;249;27962;-72
2022/03/08 04:30:09;;;;;;;7.68;6.87;;;-0.70;99.90;;;;;;476789;247;29140;-72
2022/03/08 04:32:10;;;;;;;9.65;7.65;;;-0.70;99.90;;;;;;476792;249;27505;-72
2022/03/08 04:34:11;;;;;;;9.10;8.20;;;-0.70;99.90;;;;;;476761;249;27562;-72
2022/03/08 04:36:13;;;;;;;6.40;5.80;;;-0.70;99.90;;;;;;476855;249;27544;-75
2022/03/08 04:38:14;;;;;;;9.63;7.53;;;-0.80;99.90;;;;;;476833;249;27498;-72
2022/03/08 04:40:15;;;;;;;10.10;6.78;;;-0.80;99.90;;;;;;476806;249;27547;-72
2022/03/08 04:42:16;;;;;;;7.22;6.50;;;-0.80;99.90;;;;;;476825;249;27522;-71
2022/03/08 04:44:18;;;;;;;8.35;6.50;;;-0.90;99.90;;;;;;476815;249;28259;-72
2022/03/08 04:46:19;;;;;;;7.00;6.30;;;-0.90;99.90;;;;;;476863;249;28017;-75
2022/03/08 04:48:20;;;;;;;7.55;6.47;;;-0.90;99.90;;;;;;476849;249;29067;-72
2022/03/08 04:50:21;;;;;;;8.05;5.70;;;-0.90;99.90;;;;;;476835;249;27543;-72
2022/03/08 04:52:23;;;;;;;8.05;6.97;;;-1.00;99.90;;;;;;476856;249;27632;-71
2022/03/08 04:54:24;;;;;;;6.50;5.85;;;-1.00;99.90;;;;;;476830;249;27550;-72
2022/03/08 04:56:25;;;;;;;6.68;5.55;;;-0.90;99.90;;;;;;476841;249;27555;-73
2022/03/08 04:58:26;;;;;;;7.25;5.78;;;-0.90;99.90;;;;;;476842;249;27514;-72
2022/03/08 05:00:28;;;;;;;8.90;5.97;;;-1.00;99.90;;;;;;476808;249;27555;-72
2022/03/08 05:02:29;;;;;;;7.22;6.25;;;-1.00;99.90;;;;;;476795;249;27574;-72
2022/03/08 05:04:30;;;;;;;8.38;6.97;;;-1.00;99.90;;;;;;476827;249;28027;-72
2022/03/08 05:06:31;;;;;;;7.55;6.40;;;-0.80;99.90;;;;;;476798;249;28045;-74
2022/03/08 05:08:33;;;;;;;8.10;6.55;;;-0.80;99.90;;;;;;476821;249;27973;-72
2022/03/08 05:10:34;;;;;;;9.32;7.28;;;-0.70;99.90;;;;;;476834;249;27577;-72
2022/03/08 05:12:35;;;;;;;8.80;7.00;;;-0.60;99.90;;;;;;476785;249;27659;-71
2022/03/08 05:14:36;;;;;;;9.18;6.80;;;-0.60;99.90;;;;;;476807;249;27507;-71
2022/03/08 05:16:38;;;;;;;7.30;6.55;;;-0.70;99.90;;;;;;476825;249;27551;-73
2022/03/08 05:18:39;;;;;;;8.45;7.30;;;-0.70;99.90;;;;;;476849;249;27603;-72
2022/03/08 05:20:40;;;;;;;8.77;6.70;;;-0.70;99.90;;;;;;476793;249;27572;-72
2022/03/08 05:22:41;;;;;;;7.72;7.03;;;-0.70;99.90;;;;;;476802;249;27652;-71
2022/03/08 05:24:43;;;;;;;8.02;7.18;;;-0.80;99.90;;;;;;476852;249;28051;-72
2022/03/08 05:26:44;;;;;;;8.38;7.47;;;-0.70;99.90;;;;;;476855;249;28026;-72
2022/03/08 05:28:46;;;;;;;7.55;6.75;;;-0.70;99.90;;;;;;476830;249;29094;-72
2022/03/08 05:30:46;;;;;;;11.00;5.95;;;-0.70;99.90;;;;;;476756;249;27646;-72
2022/03/08 05:32:48;;;;;;;8.70;7.12;;;-0.60;99.90;;;;;;476830;249;27554;-72
2022/03/08 05:34:49;;;;;;;9.30;7.37;;;-0.70;99.90;;;;;;476827;249;27559;-71
2022/03/08 05:36:50;;;;;;;9.23;7.82;;;-0.60;99.90;;;;;;476840;249;27657;-72
2022/03/08 05:38:51;;;;;;;9.23;7.25;;;-0.60;99.90;;;;;;476814;249;27515;-72
2022/03/08 05:40:53;;;;;;;8.80;7.10;;;-0.70;99.90;;;;;;476800;249;27658;-72
2022/03/08 05:42:54;;;;;;;8.18;7.28;;;-0.70;99.90;;;;;;476816;249;27646;-74
2022/03/08 05:44:55;;;;;;;7.10;6.47;;;-0.70;99.90;;;;;;476833;249;27969;-72
2022/03/08 05:46:56;;;;;;;8.00;7.20;;;-0.70;99.90;;;;;;476830;249;29118;-72
2022/03/08 05:48:58;;;;;;;6.70;6.10;;;-0.70;99.90;;;;;;476833;249;27519;-72
2022/03/08 05:50:59;;;;;;;8.20;6.60;;;-0.70;99.90;;;;;;476795;249;27562;-72
2022/03/08 05:53:00;;;;;;;7.65;6.80;;;-0.70;99.90;;;;;;476859;249;27559;-75
2022/03/08 05:55:01;;;;;;;8.13;7.32;;;-0.60;99.90;;;;;;476828;249;27650;-72
2022/03/08 05:57:03;;;;;;;8.10;6.95;;;-0.60;99.90;;;;;;476869;249;27637;-74
2022/03/08 05:59:04;;;;;;;7.30;6.45;;;-0.60;99.90;;;;;;476828;249;27536;-72
2022/03/08 06:01:05;;;;;;;8.50;6.90;;;-0.60;99.90;;;;;;476834;249;27501;-72
2022/03/08 06:03:07;;;;;;;8.43;6.85;;;-0.60;99.90;;;;;;476841;249;27551;-73
2022/03/08 06:05:08;;;;;;;8.15;7.35;;;-0.60;99.90;;;;;;476844;249;27967;-72
2022/03/08 06:07:09;;;;;;;8.90;7.30;;;-0.60;99.90;;;;;;476826;247;29145;-73
2022/03/08 06:09:10;;;;;;;8.55;6.35;;;-0.50;99.90;;;;;;476835;249;27535;-72
2022/03/08 06:11:11;;;;;;;11.50;7.30;;;-0.50;99.90;;;;;;476831;249;27506;-72
2022/03/08 06:13:13;;;;;;;8.10;6.75;;;-0.50;99.90;;;;;;476815;249;27547;-73
2022/03/08 06:15:14;;;;;;;7.00;6.30;;;-0.40;99.90;;;;;;476799;249;27535;-72
2022/03/08 06:17:15;;;;;;;7.80;6.60;;;-0.50;99.90;;;;;;476855;249;27560;-72
2022/03/08 06:19:16;;;;;;;7.87;6.85;;;-0.50;99.90;;;;;;476832;249;27620;-72
2022/03/08 06:21:18;;;;;;;7.20;6.50;;;-0.40;99.90;;;;;;476850;249;27631;-72
2022/03/08 06:23:19;;;;;;;8.55;7.05;;;-0.40;99.90;;;;;;476817;249;28213;-72
2022/03/08 06:25:20;;;;;;;7.60;6.87;;;-0.40;99.90;;;;;;476822;249;27979;-72
2022/03/08 06:27:22;;;;;;;7.78;7.00;;;-0.30;99.90;;;;;;476804;249;29161;-72
2022/03/08 06:29:23;;;;;;;6.90;6.20;;;-0.30;99.90;;;;;;476839;249;27558;-72
2022/03/08 06:31:24;;;;;;;8.57;6.65;;;-0.20;99.90;;;;;;476874;249;27518;-72
2022/03/08 06:33:26;;;;;;;9.02;7.22;;;-0.10;99.90;;;;;;476842;249;27548;-72
2022/03/08 06:35:27;;;;;;;6.97;6.28;;;-0.10;99.90;;;;;;476782;249;27514;-72
2022/03/08 06:37:28;;;;;;;8.77;7.30;;;-0.10;99.90;;;;;;476847;249;27548;-72
2022/03/08 06:39:30;;;;;;;7.22;6.53;;;-0.10;99.90;;;;;;476868;249;27555;-72
2022/03/08 06:41:32;;;;;;;9.48;6.90;;;0.00;99.90;;;;;;476835;249;27501;-72
2022/03/08 06:43:32;;;;;;;8.35;6.70;;;0.00;99.90;;;;;;476716;249;28031;-72
2022/03/08 06:45:33;;;;;;;11.70;7.85;;;0.10;99.90;;;;;;476884;249;27932;-72
2022/03/08 06:47:34;;;;;;;6.80;5.90;;;0.10;99.90;;;;;;476859;249;27988;-72
2022/03/08 06:49:35;;;;;;;7.93;6.70;;;0.10;99.90;;;;;;476859;249;28149;-73
2022/03/08 06:51:37;;;;;;;9.57;7.00;;;0.10;99.90;;;;;;476849;249;27520;-72
2022/03/08 06:53:38;;;;;;;7.25;6.60;;;0.20;99.90;;;;;;476857;249;27563;-72
2022/03/08 06:55:39;;;;;;;8.40;7.18;;;0.30;99.90;;;;;;476845;249;27645;-72
2022/03/08 06:57:40;;;;;;;8.43;6.87;;;0.30;99.90;;;;;;476883;249;27619;-72
2022/03/08 06:59:42;;;;;;;9.75;7.30;;;0.30;99.90;;;;;;476836;249;27552;-73
2022/03/08 07:01:43;;;;;;;14.45;8.32;;;0.30;99.90;;;;;;476825;249;27514;-72
2022/03/08 07:03:44;;;;;;;11.48;7.57;;;0.30;99.90;;;;;;476818;249;27559;-73
2022/03/08 07:05:46;;;;;;;8.52;6.82;;;0.40;99.90;;;;;;476825;249;27601;-71
2022/03/08 07:07:47;;;;;;;8.15;6.65;;;0.40;99.90;;;;;;476811;249;27513;-72
2022/03/08 07:09:48;;;;;;;13.95;7.70;;;0.50;99.90;;;;;;476845;249;28039;-73
2022/03/08 07:11:49;;;;;;;7.18;6.47;;;0.50;99.90;;;;;;476833;249;28120;-72
2022/03/08 07:13:50;;;;;;;8.20;7.32;;;0.50;99.90;;;;;;476843;249;28041;-72
2022/03/08 07:15:52;;;;;;;7.72;6.15;;;0.60;99.90;;;;;;476838;249;28051;-72
2022/03/08 07:17:53;;;;;;;8.52;7.18;;;0.60;99.90;;;;;;476850;248;27500;-72
2022/03/08 07:19:54;;;;;;;7.75;7.05;;;0.60;99.90;;;;;;476804;249;27552;-72
2022/03/08 07:21:55;;;;;;;9.20;7.90;;;0.70;99.90;;;;;;476723;249;27507;-72
2022/03/08 07:23:57;;;;;;;8.50;7.60;;;0.70;99.90;;;;;;476697;249;27653;-72
2022/03/08 07:25:58;;;;;;;7.75;6.93;;;0.70;99.90;;;;;;476831;249;27618;-72
2022/03/08 07:27:59;;;;;;;8.05;7.22;;;0.80;99.90;;;;;;476769;249;27594;-72
2022/03/08 07:30:02;;;;;;;7.47;6.65;;;0.80;99.90;;;;;;476850;249;27653;-73
2022/03/08 07:32:02;;;;;;;8.23;6.85;;;0.80;99.90;;;;;;476703;249;27515;-72
2022/03/08 07:34:03;;;;;;;8.65;7.00;;;0.90;99.90;;;;;;476810;249;27643;-72
2022/03/08 07:36:04;;;;;;;9.05;7.80;;;0.90;99.90;;;;;;476844;249;28019;-74
2022/03/08 07:38:05;;;;;;;8.02;7.07;;;0.90;99.90;;;;;;476783;249;27977;-71
2022/03/08 07:40:07;;;;;;;13.15;7.28;;;1.00;99.90;;;;;;476855;249;28094;-72
2022/03/08 07:42:08;;;;;;;8.15;6.85;;;1.10;99.90;;;;;;476897;249;27982;-72
2022/03/08 07:44:09;;;;;;;8.07;6.75;;;1.10;99.90;;;;;;476821;249;27553;-72
2022/03/08 07:46:10;;;;;;;8.60;6.50;;;1.10;99.90;;;;;;476838;249;27556;-74
2022/03/08 07:48:12;;;;;;;8.68;7.03;;;1.10;99.90;;;;;;476832;249;27592;-72
2022/03/08 07:50:13;;;;;;;7.15;6.45;;;1.20;99.90;;;;;;476824;249;27629;-73
2022/03/08 07:52:14;;;;;;;9.18;7.43;;;1.30;99.90;;;;;;476848;249;27596;-72
2022/03/08 07:54:15;;;;;;;7.72;6.87;;;1.30;99.90;;;;;;476865;249;27531;-73
2022/03/08 07:56:17;;;;;;;9.93;7.82;;;1.30;99.90;;;;;;476839;249;27682;-73
2022/03/08 07:58:19;;;;;;;10.93;7.40;;;;;;;;;;476848;249;27516;-72
2022/03/08 08:00:21;;;;;;;8.65;6.90;;;;;;;;;;476811;249;26403;-72
2022/03/08 08:02:23;;;;;;;9.27;7.60;;;;;;;;;;476852;249;26427;-73
2022/03/08 08:04:24;;;;;;;8.70;7.30;;;1.60;99.90;;;;;;476847;249;26384;-71
2022/03/08 08:06:25;;;;;;;7.78;6.95;;;1.60;99.90;;;;;;476800;249;27563;-72
2022/03/08 08:08:27;;;;;;;10.40;7.22;;;1.60;99.90;;;;;;476802;249;28086;-74
2022/03/08 08:10:28;;;;;;;7.40;6.55;;;1.60;99.90;;;;;;476828;249;27991;-72
2022/03/08 08:12:29;;;;;;;9.32;6.95;;;1.70;99.90;;;;;;476857;248;28156;-73
2022/03/08 08:14:30;;;;;;;9.57;7.45;;;1.70;99.90;;;;;;476820;249;27520;-72
2022/03/08 08:16:32;;;;;;;8.60;7.15;;;1.80;99.90;;;;;;476781;249;27551;-72
2022/03/08 08:18:34;;;;;;;8.05;6.30;;;1.80;99.90;;;;;;476812;249;27638;-74
2022/03/08 08:20:34;;;;;;;7.10;6.30;;;1.80;99.90;;;;;;476860;249;27611;-71
2022/03/08 08:22:35;;;;;;;9.20;6.50;;;1.80;99.90;;;;;;476839;249;27626;-72
2022/03/08 08:24:37;;;;;;;9.30;6.87;;;1.70;99.90;;;;;;476837;249;27572;-71
2022/03/08 08:26:38;;;;;;;8.70;7.10;;;1.80;99.90;;;;;;476850;249;27571;-71
2022/03/08 08:28:40;;;;;;;8.52;7.25;;;1.90;99.90;;;;;;476870;249;27570;-72
2022/03/08 08:30:40;;;;;;;9.02;6.65;;;1.90;99.90;;;;;;476807;249;27513;-72
2022/03/08 08:32:44;;;;;;;8.90;6.82;;;1.90;99.90;;;;;;476846;249;27552;-72
2022/03/08 08:34:43;;;;;;;8.75;7.50;;;2.00;99.90;;;;;;476733;249;28759;-72
2022/03/08 08:36:47;;;;;;;9.10;7.43;;;2.10;99.90;;;;;;476856;249;27980;-72
2022/03/08 08:38:48;;;;;;;8.23;7.12;;;2.10;99.90;;;;;;476830;249;27986;-72
2022/03/08 08:40:50;;;;;;;8.60;6.93;;;2.20;99.90;;;;;;476814;249;27555;-72
2022/03/08 08:42:51;;;;;;;8.07;6.50;;;2.10;99.90;;;;;;476838;249;27524;-72
2022/03/08 08:44:52;;;;;;;8.02;7.05;;;2.10;99.90;;;;;;476831;249;27550;-72
2022/03/08 08:46:54;;;;;;;9.48;7.40;;;2.20;99.90;;;;;;476853;249;27640;-72
2022/03/08 08:48:55;;;;;;;7.28;6.68;;;2.40;99.90;;;;;;476844;249;27591;-72
2022/03/08 08:50:56;;;;;;;8.00;7.03;;;2.40;99.90;;;;;;476845;249;27562;-72
2022/03/08 08:52:57;;;;;;;8.95;6.65;;;2.40;99.90;;;;;;476845;249;27518;-72
2022/03/08 08:54:59;;;;;;;10.40;7.30;;;2.40;99.90;;;;;;476840;249;27627;-72
2022/03/08 08:57:00;;;;;;;8.50;7.20;;;2.40;99.90;;;;;;476865;249;28010;-73
2022/03/08 08:59:01;;;;;;;8.82;7.75;;;2.50;99.90;;;;;;476964;249;28029;-71
2022/03/08 09:01:02;;;;;;;8.65;7.32;;;2.50;99.90;;;;;;476961;249;29162;-72
2022/03/08 09:03:04;;;;;;;8.25;7.37;;;2.50;99.90;;;;;;476833;249;27970;-72
2022/03/08 09:05:05;;;;;;;8.20;6.80;;;2.50;99.90;;;;;;476853;248;27510;-72
2022/03/08 09:07:06;;;;;;;8.02;7.10;;;2.60;99.90;;;;;;476849;249;27568;-73
2022/03/08 09:09:07;;;;;;;7.43;6.62;;;2.60;99.90;;;;;;476833;249;27507;-72
2022/03/08 09:11:10;;;;;;;8.10;6.93;;;2.60;99.90;;;;;;476817;249;27630;-72
2022/03/08 09:13:10;;;;;;;7.32;6.50;;;2.70;99.90;;;;;;476387;249;27918;-73
2022/03/08 09:15:11;;;;;;;8.10;7.30;;;2.70;99.90;;;;;;476701;249;27523;-72
2022/03/08 09:17:13;;;;;;;8.75;7.30;;;2.80;99.90;;;;;;476800;248;27692;-71
2022/03/08 09:19:14;;;;;;;7.37;6.68;;;2.90;99.90;;;;;;476807;249;27631;-72
2022/03/08 09:21:15;;;;;;;10.57;6.43;;;2.90;99.90;;;;;;476807;249;27629;-72
2022/03/08 09:23:16;;;;;;;8.93;7.35;;;3.10;99.90;;;;;;476839;249;28046;-73
2022/03/08 09:25:18;;;;;;;9.50;7.22;;;3.00;99.90;;;;;;476848;249;27983;-72
2022/03/08 09:27:19;;;;;;;8.88;7.35;;;2.90;99.90;;;;;;476822;249;27978;-72
2022/03/08 09:29:20;;;;;;;10.00;6.95;;;3.00;99.90;;;;;;476846;249;28042;-71
2022/03/08 09:31:21;;;;;;;8.00;6.40;;;3.10;99.90;;;;;;476852;249;27539;-71
2022/03/08 09:33:22;;;;;;;8.85;7.37;;;3.20;99.90;;;;;;476860;249;27674;-72
2022/03/08 09:35:24;;;;;;;7.57;6.75;;;3.20;99.90;;;;;;476847;249;27598;-72
2022/03/08 09:37:25;;;;;;;7.87;7.05;;;3.20;99.90;;;;;;476829;249;27578;-72
2022/03/08 09:39:26;;;;;;;8.07;7.28;;;3.20;99.90;;;;;;476819;249;27509;-72
2022/03/08 09:41:27;;;;;;;7.37;6.18;;;3.10;99.90;;;;;;476840;249;27547;-72
2022/03/08 09:43:29;;;;;;;6.97;6.28;;;3.10;99.90;;;;;;476856;249;27576;-74
2022/03/08 09:45:30;;;;;;;7.07;6.37;;;3.10;99.90;;;;;;476852;249;27635;-72
2022/03/08 09:47:31;;;;;;;7.10;6.40;;;3.30;99.90;;;;;;476840;249;27583;-72
2022/03/08 09:49:32;;;;;;;8.20;6.45;;;3.40;99.90;;;;;;476853;249;27519;-72
2022/03/08 09:51:34;;;;;;;8.57;6.75;;;3.40;99.90;;;;;;476811;249;27982;-72
2022/03/08 09:53:35;;;;;;;7.60;5.95;;;3.50;99.90;;;;;;476812;249;28029;-73
2022/03/08 09:55:36;;;;;;;7.10;6.30;;;3.50;99.90;;;;;;476831;249;27951;-71
2022/03/08 09:57:37;;;;;;;8.02;6.35;;;3.50;99.90;;;;;;476796;249;28030;-71
2022/03/08 09:59:39;;;;;;;7.68;6.12;;;3.70;99.90;;;;;;476816;249;27553;-71
2022/03/08 10:01:40;;;;;;;6.62;5.70;;;3.60;99.90;;;;;;476822;249;27635;-72
2022/03/08 10:03:42;;;;;;;8.02;6.07;;;3.70;99.90;;;;;;476822;249;27606;-73
2022/03/08 10:05:43;;;;;;;9.20;6.40;;;3.80;99.90;;;;;;476798;249;27507;-72
2022/03/08 10:07:44;;;;;;;7.40;6.20;;;3.90;99.90;;;;;;476813;249;27739;-72
2022/03/08 10:09:45;;;;;;;8.13;6.80;;;3.80;99.90;;;;;;476825;249;27690;-71
2022/03/08 10:11:46;;;;;;;7.70;6.55;;;3.80;99.90;;;;;;476850;249;27532;-72
2022/03/08 10:13:49;;;;;;;7.20;6.50;;;3.80;99.90;;;;;;476834;249;27674;-72
2022/03/08 10:15:49;;;;;;;8.23;6.70;;;3.80;99.90;;;;;;476760;249;27511;-74
2022/03/08 10:17:50;;;;;;;7.20;6.50;;;3.90;99.90;;;;;;476847;249;27542;-72
2022/03/08 10:19:51;;;;;;;8.93;6.97;;;4.00;99.90;;;;;;476900;249;28344;-72
2022/03/08 10:21:54;;;;;;;8.50;7.35;;;4.00;99.90;;;;;;476877;249;27956;-71
2022/03/08 10:23:54;;;;;;;7.22;6.40;;;3.80;99.90;;;;;;476742;249;28012;-73
2022/03/08 10:25:55;;;;;;;7.97;6.72;;;4.00;99.90;;;;;;476893;249;27514;-72
2022/03/08 10:27:56;;;;;;;8.43;6.18;;;4.00;99.90;;;;;;476894;249;27540;-71
2022/03/08 10:29:57;;;;;;;9.98;6.90;;;4.20;99.90;;;;;;476868;249;27625;-72